Norfolk Ns (Chambers Fld) Airport
KNGU : now visible

Airfield :











YOU CAN JOIN US ON...

 
LOGIN :

Register | Disclaimer

   EN    FR    IT 

 









Legend :    VFR   Marginal VFR   IFR   Intensive IFR   Very Intensive IFR
Visi :
Ceiling :
>= 8 km
>= 3000ft
5 to 8 km
1000 to 3000 ft
1500m to 5 km
500 to 1000 ft
800 to 1500m
200 to 500 ft
< 800m
< 200 ft
Symbols :   Thunderstorms  Fog  Heavy snow  Heavy precipitations  Wind > 20 kt






- Airport Elevation : 17 ft


KNGU - Norfolk Ns (Chambers Fld)

CURRENT METAR :
  • 231459Z 22009KT 10SM CLR 28/19 A2996 RMK AO2 SLP146 T02780189 58007

EXPIRED METARs :
  • 231359Z 23010KT 10SM BKN250 27/19 A2998 RMK AO2 SLP150 T02670189
  • 231259Z 20009G17KT 10SM CLR 24/18 A2998 RMK AO2 SLP151 T02440178
  • 231159Z 22011KT 10SM CLR 23/17 A2998 RMK AO2 SLP153 T02280167 10228 20211 53007
  • 231059Z 20008KT 10SM CLR 21/17 A2996 RMK AO2 SLP146 T02110167

TAF TAF KNGU
Valid from the 23 at 08:00 until the 24 at 07:00 UTC


2308/2407 20010KT 9999 FEW050 FEW250 QNH2996INS
FM231500 23012G18KT 9999 FEW070 SCT150 QNH2994INS
BECMG 2321/2323 22010KT 9999 VCTS BKN030CB BKN120 QNH2986INS
TEMPO 2400/2406 VRB15G28KT 3200 TSRA BR BKN015CB OVC040
BECMG 2406/2407 20010G20KT 4800 SHRA BKN009 OVC030 QNH2986INS TX29/2320Z TN19/2310Z TX26/2318Z TN21/2309Z AMD 0800 FN00273
KZDC FIR / North America



MET'MAP, your aeronautical weather chart ! - Copyright ORBIFLY December 2007 - Disclaimer

ORBIFLY MET'MAP TEAM :

Programming & Development : Alexandra Zaïnal
Original concept : Baudouin d'Aumeries
Technical & hardware support : Manuel Goepfert
Assistance : Marc-Olivier Méhu




SOURCES & CREDITS :

   NOAA       Earth
Advisory